sensor_id;sensor_type;location;lat;lon;timestamp;P1;durP1;ratioP1;P2;durP2;ratioP2
22470;SDS011;11402;51.374;6.594;2023-04-25T00:01:39;17.23;;;6.50;;
22470;SDS011;11402;51.374;6.594;2023-04-25T00:04:05;23.15;;;6.95;;
22470;SDS011;11402;51.374;6.594;2023-04-25T00:06:31;19.25;;;7.00;;
22470;SDS011;11402;51.374;6.594;2023-04-25T00:08:57;20.73;;;6.15;;
22470;SDS011;11402;51.374;6.594;2023-04-25T00:11:23;18.38;;;6.22;;
22470;SDS011;11402;51.374;6.594;2023-04-25T00:13:49;17.50;;;6.60;;
22470;SDS011;11402;51.374;6.594;2023-04-25T00:16:19;23.33;;;6.40;;
22470;SDS011;11402;51.374;6.594;2023-04-25T00:18:44;15.10;;;6.55;;
22470;SDS011;11402;51.374;6.594;2023-04-25T00:21:16;16.83;;;6.57;;
22470;SDS011;11402;51.374;6.594;2023-04-25T00:23:43;17.77;;;6.53;;
22470;SDS011;11402;51.374;6.594;2023-04-25T00:26:10;16.70;;;6.82;;
22470;SDS011;11402;51.374;6.594;2023-04-25T00:28:36;20.65;;;6.55;;
22470;SDS011;11402;51.374;6.594;2023-04-25T00:31:02;17.95;;;6.20;;
22470;SDS011;11402;51.374;6.594;2023-04-25T00:33:28;19.73;;;6.05;;
22470;SDS011;11402;51.374;6.594;2023-04-25T00:35:55;16.35;;;6.10;;
22470;SDS011;11402;51.374;6.594;2023-04-25T00:38:20;22.17;;;6.88;;
22470;SDS011;11402;51.374;6.594;2023-04-25T00:40:46;20.55;;;6.40;;
22470;SDS011;11402;51.374;6.594;2023-04-25T00:43:12;19.88;;;6.85;;
22470;SDS011;11402;51.374;6.594;2023-04-25T00:45:38;19.90;;;6.90;;
22470;SDS011;11402;51.374;6.594;2023-04-25T00:48:04;20.02;;;6.95;;
22470;SDS011;11402;51.374;6.594;2023-04-25T00:50:30;14.52;;;6.05;;
22470;SDS011;11402;51.374;6.594;2023-04-25T00:53:01;15.38;;;5.80;;
22470;SDS011;11402;51.374;6.594;2023-04-25T00:55:28;14.65;;;5.88;;
22470;SDS011;11402;51.374;6.594;2023-04-25T00:57:54;13.68;;;5.57;;
22470;SDS011;11402;51.374;6.594;2023-04-25T01:00:19;18.30;;;5.97;;
22470;SDS011;11402;51.374;6.594;2023-04-25T01:02:45;16.83;;;6.22;;
22470;SDS011;11402;51.374;6.594;2023-04-25T01:05:11;17.95;;;6.53;;
22470;SDS011;11402;51.374;6.594;2023-04-25T01:07:38;17.90;;;5.75;;
22470;SDS011;11402;51.374;6.594;2023-04-25T01:10:04;18.95;;;6.32;;
22470;SDS011;11402;51.374;6.594;2023-04-25T01:12:31;18.85;;;6.32;;
22470;SDS011;11402;51.374;6.594;2023-04-25T01:14:56;14.88;;;6.15;;
22470;SDS011;11402;51.374;6.594;2023-04-25T01:17:22;17.83;;;5.97;;
22470;SDS011;11402;51.374;6.594;2023-04-25T01:19:49;16.15;;;6.38;;
22470;SDS011;11402;51.374;6.594;2023-04-25T01:22:15;18.65;;;6.03;;
22470;SDS011;11402;51.374;6.594;2023-04-25T01:24:42;16.35;;;6.10;;
22470;SDS011;11402;51.374;6.594;2023-04-25T01:27:08;16.75;;;6.18;;
22470;SDS011;11402;51.374;6.594;2023-04-25T01:29:34;12.75;;;5.60;;
22470;SDS011;11402;51.374;6.594;2023-04-25T01:32:01;14.63;;;5.60;;
22470;SDS011;11402;51.374;6.594;2023-04-25T01:34:26;11.98;;;5.45;;
22470;SDS011;11402;51.374;6.594;2023-04-25T01:36:52;13.00;;;6.07;;
22470;SDS011;11402;51.374;6.594;2023-04-25T01:39:19;14.68;;;5.63;;
22470;SDS011;11402;51.374;6.594;2023-04-25T01:41:45;13.20;;;5.90;;
22470;SDS011;11402;51.374;6.594;2023-04-25T01:44:12;14.13;;;5.93;;
22470;SDS011;11402;51.374;6.594;2023-04-25T01:46:38;14.27;;;5.93;;
22470;SDS011;11402;51.374;6.594;2023-04-25T01:49:04;11.07;;;5.55;;
22470;SDS011;11402;51.374;6.594;2023-04-25T01:51:30;11.10;;;5.10;;
22470;SDS011;11402;51.374;6.594;2023-04-25T01:53:56;12.82;;;5.68;;
22470;SDS011;11402;51.374;6.594;2023-04-25T01:56:22;11.93;;;5.13;;
22470;SDS011;11402;51.374;6.594;2023-04-25T01:58:48;15.43;;;5.47;;
22470;SDS011;11402;51.374;6.594;2023-04-25T02:01:14;14.35;;;4.80;;
22470;SDS011;11402;51.374;6.594;2023-04-25T02:03:39;15.60;;;5.60;;
22470;SDS011;11402;51.374;6.594;2023-04-25T02:06:05;12.85;;;4.75;;
22470;SDS011;11402;51.374;6.594;2023-04-25T02:08:31;13.05;;;5.25;;
22470;SDS011;11402;51.374;6.594;2023-04-25T02:10:56;15.27;;;5.65;;
22470;SDS011;11402;51.374;6.594;2023-04-25T02:13:22;14.07;;;5.78;;
22470;SDS011;11402;51.374;6.594;2023-04-25T02:15:48;12.45;;;5.00;;
22470;SDS011;11402;51.374;6.594;2023-04-25T02:18:13;14.38;;;5.57;;
22470;SDS011;11402;51.374;6.594;2023-04-25T02:20:41;14.95;;;5.53;;
22470;SDS011;11402;51.374;6.594;2023-04-25T02:23:07;13.40;;;5.13;;
22470;SDS011;11402;51.374;6.594;2023-04-25T02:25:33;18.13;;;6.53;;
22470;SDS011;11402;51.374;6.594;2023-04-25T02:27:58;13.07;;;5.57;;
22470;SDS011;11402;51.374;6.594;2023-04-25T02:30:24;14.25;;;5.85;;
22470;SDS011;11402;51.374;6.594;2023-04-25T02:32:49;16.08;;;6.43;;
22470;SDS011;11402;51.374;6.594;2023-04-25T02:35:15;17.38;;;5.43;;
22470;SDS011;11402;51.374;6.594;2023-04-25T02:37:41;11.95;;;5.60;;
22470;SDS011;11402;51.374;6.594;2023-04-25T02:40:07;17.83;;;6.63;;
22470;SDS011;11402;51.374;6.594;2023-04-25T02:42:33;13.65;;;5.57;;
22470;SDS011;11402;51.374;6.594;2023-04-25T02:44:59;14.40;;;6.03;;
22470;SDS011;11402;51.374;6.594;2023-04-25T02:47:25;15.30;;;6.15;;
22470;SDS011;11402;51.374;6.594;2023-04-25T02:49:51;18.02;;;6.07;;
22470;SDS011;11402;51.374;6.594;2023-04-25T02:52:16;17.05;;;6.60;;
22470;SDS011;11402;51.374;6.594;2023-04-25T02:54:42;14.52;;;6.13;;
22470;SDS011;11402;51.374;6.594;2023-04-25T02:57:08;20.88;;;6.50;;
22470;SDS011;11402;51.374;6.594;2023-04-25T02:59:33;15.65;;;5.68;;
22470;SDS011;11402;51.374;6.594;2023-04-25T03:01:59;16.27;;;6.80;;
22470;SDS011;11402;51.374;6.594;2023-04-25T03:04:26;13.95;;;5.47;;
22470;SDS011;11402;51.374;6.594;2023-04-25T03:06:51;17.95;;;6.40;;
22470;SDS011;11402;51.374;6.594;2023-04-25T03:09:18;15.13;;;6.43;;
22470;SDS011;11402;51.374;6.594;2023-04-25T03:11:44;16.15;;;5.95;;
22470;SDS011;11402;51.374;6.594;2023-04-25T03:14:10;16.45;;;6.22;;
22470;SDS011;11402;51.374;6.594;2023-04-25T03:16:36;16.23;;;5.65;;
22470;SDS011;11402;51.374;6.594;2023-04-25T03:19:02;18.02;;;6.18;;
22470;SDS011;11402;51.374;6.594;2023-04-25T03:21:29;16.60;;;5.95;;
22470;SDS011;11402;51.374;6.594;2023-04-25T03:23:56;17.02;;;5.95;;
22470;SDS011;11402;51.374;6.594;2023-04-25T03:26:22;25.80;;;6.93;;
22470;SDS011;11402;51.374;6.594;2023-04-25T03:28:48;17.33;;;6.80;;
22470;SDS011;11402;51.374;6.594;2023-04-25T03:31:13;15.48;;;6.10;;
22470;SDS011;11402;51.374;6.594;2023-04-25T03:33:39;20.85;;;6.63;;
22470;SDS011;11402;51.374;6.594;2023-04-25T03:36:05;18.35;;;5.88;;
22470;SDS011;11402;51.374;6.594;2023-04-25T03:38:31;16.98;;;6.18;;
22470;SDS011;11402;51.374;6.594;2023-04-25T03:40:57;20.05;;;6.95;;
22470;SDS011;11402;51.374;6.594;2023-04-25T03:43:22;19.77;;;6.55;;
22470;SDS011;11402;51.374;6.594;2023-04-25T03:45:48;23.45;;;6.57;;
22470;SDS011;11402;51.374;6.594;2023-04-25T03:48:13;18.83;;;6.03;;
22470;SDS011;11402;51.374;6.594;2023-04-25T03:50:39;18.48;;;5.75;;
22470;SDS011;11402;51.374;6.594;2023-04-25T03:53:05;19.77;;;6.22;;
22470;SDS011;11402;51.374;6.594;2023-04-25T03:55:30;27.17;;;6.60;;
22470;SDS011;11402;51.374;6.594;2023-04-25T03:57:57;19.55;;;5.82;;
22470;SDS011;11402;51.374;6.594;2023-04-25T04:00:23;24.13;;;6.47;;
22470;SDS011;11402;51.374;6.594;2023-04-25T04:02:49;20.00;;;6.10;;
22470;SDS011;11402;51.374;6.594;2023-04-25T04:05:15;23.50;;;6.65;;
22470;SDS011;11402;51.374;6.594;2023-04-25T04:07:40;18.02;;;5.97;;
22470;SDS011;11402;51.374;6.594;2023-04-25T04:10:07;23.70;;;6.55;;
22470;SDS011;11402;51.374;6.594;2023-04-25T04:12:36;21.83;;;6.13;;
22470;SDS011;11402;51.374;6.594;2023-04-25T04:15:04;16.65;;;6.03;;
22470;SDS011;11402;51.374;6.594;2023-04-25T04:17:30;18.92;;;6.72;;
22470;SDS011;11402;51.374;6.594;2023-04-25T04:19:56;26.67;;;7.63;;
22470;SDS011;11402;51.374;6.594;2023-04-25T04:22:22;21.35;;;6.40;;
22470;SDS011;11402;51.374;6.594;2023-04-25T04:24:48;18.98;;;6.65;;
22470;SDS011;11402;51.374;6.594;2023-04-25T04:27:15;27.80;;;7.13;;
22470;SDS011;11402;51.374;6.594;2023-04-25T04:29:42;21.88;;;6.57;;
22470;SDS011;11402;51.374;6.594;2023-04-25T04:32:08;26.52;;;7.78;;
22470;SDS011;11402;51.374;6.594;2023-04-25T04:34:34;18.83;;;6.22;;
22470;SDS011;11402;51.374;6.594;2023-04-25T04:36:59;21.23;;;6.00;;
22470;SDS011;11402;51.374;6.594;2023-04-25T04:39:25;15.55;;;6.07;;
22470;SDS011;11402;51.374;6.594;2023-04-25T04:41:51;22.02;;;6.95;;
22470;SDS011;11402;51.374;6.594;2023-04-25T04:44:16;21.42;;;6.30;;
22470;SDS011;11402;51.374;6.594;2023-04-25T04:46:42;19.77;;;6.68;;
22470;SDS011;11402;51.374;6.594;2023-04-25T04:49:09;22.60;;;6.20;;
22470;SDS011;11402;51.374;6.594;2023-04-25T04:51:35;22.73;;;6.60;;
22470;SDS011;11402;51.374;6.594;2023-04-25T04:54:01;27.92;;;7.65;;
22470;SDS011;11402;51.374;6.594;2023-04-25T04:56:30;23.48;;;6.72;;
22470;SDS011;11402;51.374;6.594;2023-04-25T04:58:57;24.05;;;6.90;;
22470;SDS011;11402;51.374;6.594;2023-04-25T05:01:23;19.60;;;6.68;;
22470;SDS011;11402;51.374;6.594;2023-04-25T05:03:49;25.50;;;6.57;;
22470;SDS011;11402;51.374;6.594;2023-04-25T05:06:16;19.00;;;6.90;;
22470;SDS011;11402;51.374;6.594;2023-04-25T05:08:42;17.20;;;6.13;;
22470;SDS011;11402;51.374;6.594;2023-04-25T05:11:07;22.80;;;6.70;;
22470;SDS011;11402;51.374;6.594;2023-04-25T05:13:33;18.27;;;6.07;;
22470;SDS011;11402;51.374;6.594;2023-04-25T05:15:58;23.15;;;6.72;;
22470;SDS011;11402;51.374;6.594;2023-04-25T05:18:24;18.83;;;6.65;;
22470;SDS011;11402;51.374;6.594;2023-04-25T05:20:49;20.80;;;6.93;;
22470;SDS011;11402;51.374;6.594;2023-04-25T05:23:15;18.30;;;6.20;;
22470;SDS011;11402;51.374;6.594;2023-04-25T05:25:41;26.55;;;6.60;;
22470;SDS011;11402;51.374;6.594;2023-04-25T05:28:06;25.25;;;6.30;;
22470;SDS011;11402;51.374;6.594;2023-04-25T05:30:32;25.02;;;6.20;;
22470;SDS011;11402;51.374;6.594;2023-04-25T05:32:59;26.92;;;6.43;;
22470;SDS011;11402;51.374;6.594;2023-04-25T05:35:25;19.23;;;5.93;;
22470;SDS011;11402;51.374;6.594;2023-04-25T05:37:51;19.55;;;6.28;;
22470;SDS011;11402;51.374;6.594;2023-04-25T05:40:16;16.10;;;5.57;;
22470;SDS011;11402;51.374;6.594;2023-04-25T05:42:42;16.23;;;5.65;;
22470;SDS011;11402;51.374;6.594;2023-04-25T05:45:08;21.27;;;6.40;;
22470;SDS011;11402;51.374;6.594;2023-04-25T05:47:33;25.35;;;6.47;;
22470;SDS011;11402;51.374;6.594;2023-04-25T05:49:59;20.98;;;5.53;;
22470;SDS011;11402;51.374;6.594;2023-04-25T05:52:25;21.15;;;6.30;;
22470;SDS011;11402;51.374;6.594;2023-04-25T05:54:50;16.98;;;6.18;;
22470;SDS011;11402;51.374;6.594;2023-04-25T05:57:22;20.25;;;5.55;;
22470;SDS011;11402;51.374;6.594;2023-04-25T06:02:14;18.15;;;5.55;;
22470;SDS011;11402;51.374;6.594;2023-04-25T06:04:40;19.73;;;6.53;;
22470;SDS011;11402;51.374;6.594;2023-04-25T06:07:05;19.35;;;5.57;;
22470;SDS011;11402;51.374;6.594;2023-04-25T06:09:31;18.80;;;5.78;;
22470;SDS011;11402;51.374;6.594;2023-04-25T06:11:56;22.38;;;5.63;;
22470;SDS011;11402;51.374;6.594;2023-04-25T06:14:22;18.15;;;5.78;;
22470;SDS011;11402;51.374;6.594;2023-04-25T06:16:48;20.90;;;5.75;;
22470;SDS011;11402;51.374;6.594;2023-04-25T06:19:13;21.67;;;5.97;;
22470;SDS011;11402;51.374;6.594;2023-04-25T06:21:39;15.45;;;5.93;;
22470;SDS011;11402;51.374;6.594;2023-04-25T06:24:05;16.35;;;5.47;;
22470;SDS011;11402;51.374;6.594;2023-04-25T06:26:30;24.17;;;5.60;;
22470;SDS011;11402;51.374;6.594;2023-04-25T06:28:56;19.77;;;5.57;;
22470;SDS011;11402;51.374;6.594;2023-04-25T06:31:22;21.35;;;5.03;;
22470;SDS011;11402;51.374;6.594;2023-04-25T06:33:47;18.77;;;5.55;;
22470;SDS011;11402;51.374;6.594;2023-04-25T06:36:13;17.83;;;5.70;;
22470;SDS011;11402;51.374;6.594;2023-04-25T06:38:39;14.77;;;4.95;;
22470;SDS011;11402;51.374;6.594;2023-04-25T06:41:04;23.10;;;5.43;;
22470;SDS011;11402;51.374;6.594;2023-04-25T06:43:30;18.10;;;4.60;;
22470;SDS011;11402;51.374;6.594;2023-04-25T06:45:58;15.23;;;4.90;;
22470;SDS011;11402;51.374;6.594;2023-04-25T06:48:25;18.90;;;4.85;;
22470;SDS011;11402;51.374;6.594;2023-04-25T06:50:51;19.33;;;4.28;;
22470;SDS011;11402;51.374;6.594;2023-04-25T06:53:17;17.58;;;4.47;;
22470;SDS011;11402;51.374;6.594;2023-04-25T06:55:43;18.05;;;4.22;;
22470;SDS011;11402;51.374;6.594;2023-04-25T06:58:09;20.90;;;4.07;;
22470;SDS011;11402;51.374;6.594;2023-04-25T07:00:34;15.30;;;3.90;;
22470;SDS011;11402;51.374;6.594;2023-04-25T07:03:01;22.65;;;4.55;;
22470;SDS011;11402;51.374;6.594;2023-04-25T07:05:27;16.25;;;3.85;;
22470;SDS011;11402;51.374;6.594;2023-04-25T07:07:52;12.25;;;3.47;;
22470;SDS011;11402;51.374;6.594;2023-04-25T07:10:18;16.77;;;4.20;;
22470;SDS011;11402;51.374;6.594;2023-04-25T07:12:43;16.42;;;4.32;;
22470;SDS011;11402;51.374;6.594;2023-04-25T07:15:09;20.45;;;3.53;;
22470;SDS011;11402;51.374;6.594;2023-04-25T07:17:36;16.13;;;3.72;;
22470;SDS011;11402;51.374;6.594;2023-04-25T07:20:02;13.85;;;3.40;;
22470;SDS011;11402;51.374;6.594;2023-04-25T07:22:28;16.35;;;3.35;;
22470;SDS011;11402;51.374;6.594;2023-04-25T07:24:54;19.05;;;4.18;;
22470;SDS011;11402;51.374;6.594;2023-04-25T07:27:20;11.82;;;4.05;;
22470;SDS011;11402;51.374;6.594;2023-04-25T07:29:46;19.48;;;4.30;;
22470;SDS011;11402;51.374;6.594;2023-04-25T07:32:11;17.23;;;4.25;;
22470;SDS011;11402;51.374;6.594;2023-04-25T07:34:38;14.63;;;3.70;;
22470;SDS011;11402;51.374;6.594;2023-04-25T07:37:04;13.63;;;3.47;;
22470;SDS011;11402;51.374;6.594;2023-04-25T07:39:30;16.33;;;3.88;;
22470;SDS011;11402;51.374;6.594;2023-04-25T07:41:56;8.10;;;3.25;;
22470;SDS011;11402;51.374;6.594;2023-04-25T07:44:23;10.32;;;3.00;;
22470;SDS011;11402;51.374;6.594;2023-04-25T07:46:49;9.82;;;3.03;;
22470;SDS011;11402;51.374;6.594;2023-04-25T07:49:14;11.35;;;2.90;;
22470;SDS011;11402;51.374;6.594;2023-04-25T07:51:40;16.08;;;3.42;;
22470;SDS011;11402;51.374;6.594;2023-04-25T07:54:08;9.73;;;2.92;;
22470;SDS011;11402;51.374;6.594;2023-04-25T07:56:34;10.23;;;2.95;;
22470;SDS011;11402;51.374;6.594;2023-04-25T07:59:00;15.25;;;2.83;;
22470;SDS011;11402;51.374;6.594;2023-04-25T08:01:26;10.63;;;2.78;;
22470;SDS011;11402;51.374;6.594;2023-04-25T08:03:52;13.48;;;3.00;;
22470;SDS011;11402;51.374;6.594;2023-04-25T08:06:17;12.05;;;3.53;;
22470;SDS011;11402;51.374;6.594;2023-04-25T08:08:43;10.57;;;2.92;;
22470;SDS011;11402;51.374;6.594;2023-04-25T08:11:09;13.10;;;2.97;;
22470;SDS011;11402;51.374;6.594;2023-04-25T08:13:35;16.02;;;3.25;;
22470;SDS011;11402;51.374;6.594;2023-04-25T08:16:01;17.95;;;3.63;;
22470;SDS011;11402;51.374;6.594;2023-04-25T08:18:27;12.50;;;2.90;;
22470;SDS011;11402;51.374;6.594;2023-04-25T08:20:52;13.98;;;3.65;;
22470;SDS011;11402;51.374;6.594;2023-04-25T08:23:18;18.77;;;3.38;;
22470;SDS011;11402;51.374;6.594;2023-04-25T08:25:43;14.02;;;3.25;;
22470;SDS011;11402;51.374;6.594;2023-04-25T08:28:09;10.98;;;2.88;;
22470;SDS011;11402;51.374;6.594;2023-04-25T08:30:36;11.35;;;2.40;;
22470;SDS011;11402;51.374;6.594;2023-04-25T08:33:02;13.55;;;2.67;;
22470;SDS011;11402;51.374;6.594;2023-04-25T08:35:27;8.07;;;2.40;;
22470;SDS011;11402;51.374;6.594;2023-04-25T08:37:54;10.55;;;2.70;;
22470;SDS011;11402;51.374;6.594;2023-04-25T08:40:20;11.27;;;2.33;;
22470;SDS011;11402;51.374;6.594;2023-04-25T08:45:19;15.75;;;2.50;;
22470;SDS011;11402;51.374;6.594;2023-04-25T08:47:45;9.75;;;2.30;;
22470;SDS011;11402;51.374;6.594;2023-04-25T08:50:13;9.52;;;1.77;;
22470;SDS011;11402;51.374;6.594;2023-04-25T08:52:44;10.20;;;2.08;;
22470;SDS011;11402;51.374;6.594;2023-04-25T08:55:12;10.23;;;2.38;;
22470;SDS011;11402;51.374;6.594;2023-04-25T08:57:38;8.77;;;2.30;;
22470;SDS011;11402;51.374;6.594;2023-04-25T09:00:06;10.43;;;2.63;;
22470;SDS011;11402;51.374;6.594;2023-04-25T09:02:33;7.60;;;2.10;;
22470;SDS011;11402;51.374;6.594;2023-04-25T09:04:59;7.82;;;1.88;;
22470;SDS011;11402;51.374;6.594;2023-04-25T09:07:25;6.43;;;1.70;;
22470;SDS011;11402;51.374;6.594;2023-04-25T09:09:50;9.93;;;1.88;;
22470;SDS011;11402;51.374;6.594;2023-04-25T09:12:19;9.02;;;1.75;;
22470;SDS011;11402;51.374;6.594;2023-04-25T09:15:00;6.63;;;1.85;;
22470;SDS011;11402;51.374;6.594;2023-04-25T09:17:29;13.15;;;1.83;;
22470;SDS011;11402;51.374;6.594;2023-04-25T09:19:54;6.88;;;1.52;;
22470;SDS011;11402;51.374;6.594;2023-04-25T09:22:29;7.97;;;1.77;;
22470;SDS011;11402;51.374;6.594;2023-04-25T09:24:55;6.40;;;1.50;;
22470;SDS011;11402;51.374;6.594;2023-04-25T09:27:21;8.77;;;1.60;;
22470;SDS011;11402;51.374;6.594;2023-04-25T09:29:56;9.00;;;1.80;;
22470;SDS011;11402;51.374;6.594;2023-04-25T09:32:26;9.73;;;2.13;;
22470;SDS011;11402;51.374;6.594;2023-04-25T09:34:52;7.38;;;1.77;;
22470;SDS011;11402;51.374;6.594;2023-04-25T09:37:21;10.95;;;1.65;;
22470;SDS011;11402;51.374;6.594;2023-04-25T09:39:48;9.00;;;1.65;;
22470;SDS011;11402;51.374;6.594;2023-04-25T09:42:15;7.00;;;1.65;;
22470;SDS011;11402;51.374;6.594;2023-04-25T09:44:45;9.43;;;1.70;;
22470;SDS011;11402;51.374;6.594;2023-04-25T09:47:12;5.10;;;1.80;;
22470;SDS011;11402;51.374;6.594;2023-04-25T09:49:40;9.02;;;1.55;;
22470;SDS011;11402;51.374;6.594;2023-04-25T09:52:14;4.70;;;1.65;;
22470;SDS011;11402;51.374;6.594;2023-04-25T09:54:41;9.93;;;1.63;;
22470;SDS011;11402;51.374;6.594;2023-04-25T09:57:10;5.80;;;1.80;;
22470;SDS011;11402;51.374;6.594;2023-04-25T09:59:38;10.18;;;1.80;;
22470;SDS011;11402;51.374;6.594;2023-04-25T10:02:07;5.28;;;1.33;;
22470;SDS011;11402;51.374;6.594;2023-04-25T10:04:34;7.45;;;1.50;;
22470;SDS011;11402;51.374;6.594;2023-04-25T10:07:03;10.95;;;1.75;;
22470;SDS011;11402;51.374;6.594;2023-04-25T10:09:30;8.15;;;1.73;;
22470;SDS011;11402;51.374;6.594;2023-04-25T10:11:59;8.00;;;2.10;;
22470;SDS011;11402;51.374;6.594;2023-04-25T10:14:25;8.10;;;1.35;;
22470;SDS011;11402;51.374;6.594;2023-04-25T10:16:51;8.32;;;1.80;;
22470;SDS011;11402;51.374;6.594;2023-04-25T10:19:21;8.15;;;1.95;;
22470;SDS011;11402;51.374;6.594;2023-04-25T10:21:51;6.80;;;1.70;;
22470;SDS011;11402;51.374;6.594;2023-04-25T10:24:28;6.82;;;1.63;;
22470;SDS011;11402;51.374;6.594;2023-04-25T10:26:53;6.95;;;1.85;;
22470;SDS011;11402;51.374;6.594;2023-04-25T10:29:26;10.48;;;2.00;;
22470;SDS011;11402;51.374;6.594;2023-04-25T10:31:52;5.53;;;1.60;;
22470;SDS011;11402;51.374;6.594;2023-04-25T10:34:18;9.00;;;1.92;;
22470;SDS011;11402;51.374;6.594;2023-04-25T10:36:51;8.63;;;1.80;;
22470;SDS011;11402;51.374;6.594;2023-04-25T10:39:22;8.52;;;1.90;;
22470;SDS011;11402;51.374;6.594;2023-04-25T10:41:57;9.73;;;2.15;;
22470;SDS011;11402;51.374;6.594;2023-04-25T10:44:27;11.93;;;2.10;;
22470;SDS011;11402;51.374;6.594;2023-04-25T10:46:57;8.33;;;1.70;;
22470;SDS011;11402;51.374;6.594;2023-04-25T10:49:30;7.38;;;2.55;;
22470;SDS011;11402;51.374;6.594;2023-04-25T10:54:52;13.25;;;2.55;;
22470;SDS011;11402;51.374;6.594;2023-04-25T10:59:58;6.43;;;2.10;;
22470;SDS011;11402;51.374;6.594;2023-04-25T11:02:28;5.53;;;1.90;;
22470;SDS011;11402;51.374;6.594;2023-04-25T11:04:54;6.25;;;1.98;;
22470;SDS011;11402;51.374;6.594;2023-04-25T11:07:26;5.57;;;1.83;;
22470;SDS011;11402;51.374;6.594;2023-04-25T11:10:00;7.35;;;2.08;;
22470;SDS011;11402;51.374;6.594;2023-04-25T11:12:29;8.05;;;2.00;;
22470;SDS011;11402;51.374;6.594;2023-04-25T11:15:00;4.97;;;2.00;;
22470;SDS011;11402;51.374;6.594;2023-04-25T11:19:55;8.00;;;1.98;;
22470;SDS011;11402;51.374;6.594;2023-04-25T11:22:21;6.18;;;1.98;;
22470;SDS011;11402;51.374;6.594;2023-04-25T11:24:47;9.05;;;2.38;;
22470;SDS011;11402;51.374;6.594;2023-04-25T11:27:13;4.93;;;1.80;;
22470;SDS011;11402;51.374;6.594;2023-04-25T11:29:39;10.27;;;2.17;;
22470;SDS011;11402;51.374;6.594;2023-04-25T11:32:04;6.20;;;1.70;;
22470;SDS011;11402;51.374;6.594;2023-04-25T11:34:30;6.15;;;2.00;;
22470;SDS011;11402;51.374;6.594;2023-04-25T11:36:57;8.00;;;1.80;;
22470;SDS011;11402;51.374;6.594;2023-04-25T11:39:24;9.77;;;2.10;;
22470;SDS011;11402;51.374;6.594;2023-04-25T11:41:51;6.30;;;1.70;;
22470;SDS011;11402;51.374;6.594;2023-04-25T11:44:17;7.60;;;1.90;;
22470;SDS011;11402;51.374;6.594;2023-04-25T11:46:43;6.63;;;2.30;;
22470;SDS011;11402;51.374;6.594;2023-04-25T11:49:09;10.63;;;2.10;;
22470;SDS011;11402;51.374;6.594;2023-04-25T11:51:41;9.98;;;2.90;;
22470;SDS011;11402;51.374;6.594;2023-04-25T11:54:08;8.45;;;2.53;;
22470;SDS011;11402;51.374;6.594;2023-04-25T11:56:34;8.32;;;2.28;;
22470;SDS011;11402;51.374;6.594;2023-04-25T11:59:01;7.82;;;2.10;;
22470;SDS011;11402;51.374;6.594;2023-04-25T12:01:28;7.63;;;2.03;;
22470;SDS011;11402;51.374;6.594;2023-04-25T12:03:58;7.03;;;2.00;;
22470;SDS011;11402;51.374;6.594;2023-04-25T12:06:38;7.80;;;2.08;;
22470;SDS011;11402;51.374;6.594;2023-04-25T12:09:06;5.43;;;1.70;;
22470;SDS011;11402;51.374;6.594;2023-04-25T12:11:40;6.15;;;2.10;;
22470;SDS011;11402;51.374;6.594;2023-04-25T12:14:07;5.25;;;1.80;;
22470;SDS011;11402;51.374;6.594;2023-04-25T12:16:40;8.65;;;1.95;;
22470;SDS011;11402;51.374;6.594;2023-04-25T12:19:13;9.50;;;2.10;;
22470;SDS011;11402;51.374;6.594;2023-04-25T12:21:39;7.82;;;1.60;;
22470;SDS011;11402;51.374;6.594;2023-04-25T12:24:09;7.53;;;2.08;;
22470;SDS011;11402;51.374;6.594;2023-04-25T12:26:49;6.97;;;2.08;;
22470;SDS011;11402;51.374;6.594;2023-04-25T12:29:25;7.22;;;1.95;;
22470;SDS011;11402;51.374;6.594;2023-04-25T12:31:52;6.32;;;1.55;;
22470;SDS011;11402;51.374;6.594;2023-04-25T12:34:19;4.65;;;1.60;;
22470;SDS011;11402;51.374;6.594;2023-04-25T12:36:46;6.18;;;1.88;;
22470;SDS011;11402;51.374;6.594;2023-04-25T12:39:18;6.80;;;1.90;;
22470;SDS011;11402;51.374;6.594;2023-04-25T12:41:51;6.10;;;1.92;;
22470;SDS011;11402;51.374;6.594;2023-04-25T12:44:20;6.88;;;1.75;;
22470;SDS011;11402;51.374;6.594;2023-04-25T12:46:46;5.57;;;1.95;;
22470;SDS011;11402;51.374;6.594;2023-04-25T12:49:12;7.10;;;1.85;;
22470;SDS011;11402;51.374;6.594;2023-04-25T12:51:38;8.05;;;2.22;;
22470;SDS011;11402;51.374;6.594;2023-04-25T12:54:04;7.63;;;2.03;;
22470;SDS011;11402;51.374;6.594;2023-04-25T12:56:32;8.35;;;1.75;;
22470;SDS011;11402;51.374;6.594;2023-04-25T12:58:57;5.95;;;1.77;;
22470;SDS011;11402;51.374;6.594;2023-04-25T13:01:23;4.63;;;1.65;;
22470;SDS011;11402;51.374;6.594;2023-04-25T13:03:49;7.43;;;1.75;;
22470;SDS011;11402;51.374;6.594;2023-04-25T13:06:15;6.05;;;1.75;;
22470;SDS011;11402;51.374;6.594;2023-04-25T13:08:42;6.60;;;1.70;;
22470;SDS011;11402;51.374;6.594;2023-04-25T13:11:08;8.90;;;1.85;;
22470;SDS011;11402;51.374;6.594;2023-04-25T13:13:34;4.93;;;1.40;;
22470;SDS011;11402;51.374;6.594;2023-04-25T13:16:06;3.38;;;1.25;;
22470;SDS011;11402;51.374;6.594;2023-04-25T13:18:32;6.85;;;1.65;;
22470;SDS011;11402;51.374;6.594;2023-04-25T13:20:58;4.68;;;1.52;;
22470;SDS011;11402;51.374;6.594;2023-04-25T13:23:25;5.55;;;1.23;;
22470;SDS011;11402;51.374;6.594;2023-04-25T13:25:51;8.35;;;1.58;;
22470;SDS011;11402;51.374;6.594;2023-04-25T13:28:17;5.72;;;1.48;;
22470;SDS011;11402;51.374;6.594;2023-04-25T13:30:43;6.63;;;1.70;;
22470;SDS011;11402;51.374;6.594;2023-04-25T13:33:09;7.00;;;1.60;;
22470;SDS011;11402;51.374;6.594;2023-04-25T13:35:36;8.23;;;1.40;;
22470;SDS011;11402;51.374;6.594;2023-04-25T13:38:02;7.28;;;1.60;;
22470;SDS011;11402;51.374;6.594;2023-04-25T13:40:28;5.88;;;1.55;;
22470;SDS011;11402;51.374;6.594;2023-04-25T13:42:55;6.03;;;1.50;;
22470;SDS011;11402;51.374;6.594;2023-04-25T13:45:21;7.30;;;1.80;;
22470;SDS011;11402;51.374;6.594;2023-04-25T13:47:47;5.30;;;1.85;;
22470;SDS011;11402;51.374;6.594;2023-04-25T13:50:12;8.75;;;2.22;;
22470;SDS011;11402;51.374;6.594;2023-04-25T13:52:39;5.70;;;1.48;;
22470;SDS011;11402;51.374;6.594;2023-04-25T13:55:05;5.65;;;1.80;;
22470;SDS011;11402;51.374;6.594;2023-04-25T13:57:32;7.45;;;1.88;;
22470;SDS011;11402;51.374;6.594;2023-04-25T13:59:58;19.95;;;8.52;;
22470;SDS011;11402;51.374;6.594;2023-04-25T14:02:24;7.30;;;2.42;;
22470;SDS011;11402;51.374;6.594;2023-04-25T14:04:50;8.50;;;1.70;;
22470;SDS011;11402;51.374;6.594;2023-04-25T14:07:15;12.32;;;2.13;;
22470;SDS011;11402;51.374;6.594;2023-04-25T14:09:41;6.72;;;1.80;;
22470;SDS011;11402;51.374;6.594;2023-04-25T14:12:07;3.35;;;1.63;;
22470;SDS011;11402;51.374;6.594;2023-04-25T14:14:33;4.95;;;1.40;;
22470;SDS011;11402;51.374;6.594;2023-04-25T14:16:58;6.30;;;1.48;;
22470;SDS011;11402;51.374;6.594;2023-04-25T14:19:24;3.22;;;1.30;;
22470;SDS011;11402;51.374;6.594;2023-04-25T14:21:50;5.53;;;1.42;;
22470;SDS011;11402;51.374;6.594;2023-04-25T14:24:15;8.52;;;1.85;;
22470;SDS011;11402;51.374;6.594;2023-04-25T14:26:41;5.93;;;1.90;;
22470;SDS011;11402;51.374;6.594;2023-04-25T14:29:07;6.68;;;1.80;;
22470;SDS011;11402;51.374;6.594;2023-04-25T14:31:34;6.60;;;1.45;;
22470;SDS011;11402;51.374;6.594;2023-04-25T14:34:00;6.07;;;1.50;;
22470;SDS011;11402;51.374;6.594;2023-04-25T14:36:27;7.25;;;1.67;;
22470;SDS011;11402;51.374;6.594;2023-04-25T14:38:53;5.07;;;1.42;;
22470;SDS011;11402;51.374;6.594;2023-04-25T14:41:19;3.85;;;1.38;;
22470;SDS011;11402;51.374;6.594;2023-04-25T14:43:44;4.80;;;1.48;;
22470;SDS011;11402;51.374;6.594;2023-04-25T14:46:10;7.03;;;1.10;;
22470;SDS011;11402;51.374;6.594;2023-04-25T14:48:36;5.90;;;1.20;;